sensor_id;sensor_type;location;lat;lon;timestamp;P1;durP1;ratioP1;P2;durP2;ratioP2
21352;SDS011;10834;52.268;6.770;2023-05-23T00:02:33;10.98;;;8.23;;
21352;SDS011;10834;52.268;6.770;2023-05-23T00:05:19;12.20;;;8.52;;
21352;SDS011;10834;52.268;6.770;2023-05-23T00:08:05;11.05;;;8.50;;
21352;SDS011;10834;52.268;6.770;2023-05-23T00:10:51;12.95;;;8.77;;
21352;SDS011;10834;52.268;6.770;2023-05-23T00:13:37;16.95;;;10.13;;
21352;SDS011;10834;52.268;6.770;2023-05-23T00:16:24;16.02;;;9.70;;
21352;SDS011;10834;52.268;6.770;2023-05-23T00:19:11;14.38;;;10.18;;
21352;SDS011;10834;52.268;6.770;2023-05-23T00:22:00;13.63;;;10.30;;
21352;SDS011;10834;52.268;6.770;2023-05-23T00:24:47;15.50;;;11.95;;
21352;SDS011;10834;52.268;6.770;2023-05-23T00:27:33;14.70;;;10.82;;
21352;SDS011;10834;52.268;6.770;2023-05-23T00:30:20;18.58;;;12.55;;
21352;SDS011;10834;52.268;6.770;2023-05-23T00:33:06;18.43;;;13.10;;
21352;SDS011;10834;52.268;6.770;2023-05-23T00:35:52;19.17;;;12.07;;
21352;SDS011;10834;52.268;6.770;2023-05-23T00:38:38;17.48;;;12.07;;
21352;SDS011;10834;52.268;6.770;2023-05-23T00:41:24;19.38;;;13.50;;
21352;SDS011;10834;52.268;6.770;2023-05-23T00:44:11;19.45;;;12.32;;
21352;SDS011;10834;52.268;6.770;2023-05-23T00:46:57;16.27;;;12.20;;
21352;SDS011;10834;52.268;6.770;2023-05-23T00:49:44;21.00;;;12.60;;
21352;SDS011;10834;52.268;6.770;2023-05-23T00:52:30;20.65;;;14.15;;
21352;SDS011;10834;52.268;6.770;2023-05-23T00:55:17;20.70;;;13.40;;
21352;SDS011;10834;52.268;6.770;2023-05-23T00:58:03;22.17;;;14.65;;
21352;SDS011;10834;52.268;6.770;2023-05-23T01:00:50;21.40;;;14.63;;
21352;SDS011;10834;52.268;6.770;2023-05-23T01:03:38;20.67;;;15.60;;
21352;SDS011;10834;52.268;6.770;2023-05-23T01:06:24;23.58;;;14.50;;
21352;SDS011;10834;52.268;6.770;2023-05-23T01:09:19;24.10;;;15.68;;
21352;SDS011;10834;52.268;6.770;2023-05-23T01:12:16;20.95;;;15.82;;
21352;SDS011;10834;52.268;6.770;2023-05-23T01:15:14;20.90;;;15.55;;
21352;SDS011;10834;52.268;6.770;2023-05-23T01:18:12;19.73;;;13.75;;
21352;SDS011;10834;52.268;6.770;2023-05-23T01:21:17;17.63;;;13.52;;
21352;SDS011;10834;52.268;6.770;2023-05-23T01:30:08;16.40;;;11.27;;
21352;SDS011;10834;52.268;6.770;2023-05-23T01:32:57;18.35;;;11.18;;
21352;SDS011;10834;52.268;6.770;2023-05-23T01:35:45;17.73;;;11.77;;
21352;SDS011;10834;52.268;6.770;2023-05-23T01:38:31;15.95;;;10.80;;
21352;SDS011;10834;52.268;6.770;2023-05-23T01:41:17;14.75;;;10.45;;
21352;SDS011;10834;52.268;6.770;2023-05-23T01:44:03;13.80;;;10.32;;
21352;SDS011;10834;52.268;6.770;2023-05-23T01:46:50;17.40;;;10.77;;
21352;SDS011;10834;52.268;6.770;2023-05-23T01:49:36;17.37;;;11.63;;
21352;SDS011;10834;52.268;6.770;2023-05-23T01:52:24;15.63;;;10.57;;
21352;SDS011;10834;52.268;6.770;2023-05-23T01:55:10;18.10;;;11.00;;
21352;SDS011;10834;52.268;6.770;2023-05-23T01:58:00;19.37;;;11.03;;
21352;SDS011;10834;52.268;6.770;2023-05-23T02:00:47;18.43;;;10.97;;
21352;SDS011;10834;52.268;6.770;2023-05-23T02:03:33;19.73;;;11.25;;
21352;SDS011;10834;52.268;6.770;2023-05-23T02:06:19;17.80;;;10.73;;
21352;SDS011;10834;52.268;6.770;2023-05-23T02:09:05;14.43;;;10.23;;
21352;SDS011;10834;52.268;6.770;2023-05-23T02:11:52;17.95;;;10.18;;
21352;SDS011;10834;52.268;6.770;2023-05-23T02:14:38;19.40;;;11.37;;
21352;SDS011;10834;52.268;6.770;2023-05-23T02:17:32;17.37;;;10.50;;
21352;SDS011;10834;52.268;6.770;2023-05-23T02:20:18;17.85;;;10.85;;
21352;SDS011;10834;52.268;6.770;2023-05-23T02:23:04;17.50;;;10.33;;
21352;SDS011;10834;52.268;6.770;2023-05-23T02:25:51;15.90;;;9.73;;
21352;SDS011;10834;52.268;6.770;2023-05-23T02:28:37;16.23;;;10.07;;
21352;SDS011;10834;52.268;6.770;2023-05-23T02:31:23;13.93;;;10.05;;
21352;SDS011;10834;52.268;6.770;2023-05-23T02:34:09;13.90;;;9.98;;
21352;SDS011;10834;52.268;6.770;2023-05-23T02:36:55;13.50;;;8.73;;
21352;SDS011;10834;52.268;6.770;2023-05-23T02:39:43;15.40;;;9.47;;
21352;SDS011;10834;52.268;6.770;2023-05-23T02:42:29;18.23;;;11.80;;
21352;SDS011;10834;52.268;6.770;2023-05-23T02:45:16;15.40;;;10.07;;
21352;SDS011;10834;52.268;6.770;2023-05-23T02:48:02;20.27;;;10.97;;
21352;SDS011;10834;52.268;6.770;2023-05-23T02:50:48;16.27;;;11.30;;
21352;SDS011;10834;52.268;6.770;2023-05-23T02:53:34;18.20;;;11.60;;
21352;SDS011;10834;52.268;6.770;2023-05-23T02:56:20;24.57;;;12.77;;
21352;SDS011;10834;52.268;6.770;2023-05-23T02:59:07;22.83;;;12.30;;
21352;SDS011;10834;52.268;6.770;2023-05-23T03:01:52;20.03;;;11.60;;
21352;SDS011;10834;52.268;6.770;2023-05-23T03:04:39;19.90;;;12.10;;
21352;SDS011;10834;52.268;6.770;2023-05-23T03:07:25;25.37;;;12.93;;
21352;SDS011;10834;52.268;6.770;2023-05-23T03:10:11;17.90;;;12.23;;
21352;SDS011;10834;52.268;6.770;2023-05-23T03:12:57;19.03;;;11.97;;
21352;SDS011;10834;52.268;6.770;2023-05-23T03:15:43;19.50;;;12.18;;
21352;SDS011;10834;52.268;6.770;2023-05-23T03:18:30;18.70;;;12.30;;
21352;SDS011;10834;52.268;6.770;2023-05-23T03:21:16;22.00;;;12.37;;
21352;SDS011;10834;52.268;6.770;2023-05-23T03:24:02;19.33;;;11.50;;
21352;SDS011;10834;52.268;6.770;2023-05-23T03:26:48;19.53;;;12.10;;
21352;SDS011;10834;52.268;6.770;2023-05-23T03:29:34;19.27;;;12.48;;
21352;SDS011;10834;52.268;6.770;2023-05-23T03:32:21;20.63;;;11.47;;
21352;SDS011;10834;52.268;6.770;2023-05-23T03:35:07;18.33;;;10.70;;
21352;SDS011;10834;52.268;6.770;2023-05-23T03:37:53;18.77;;;10.23;;
21352;SDS011;10834;52.268;6.770;2023-05-23T03:40:39;17.53;;;9.90;;
21352;SDS011;10834;52.268;6.770;2023-05-23T03:43:25;19.63;;;10.87;;
21352;SDS011;10834;52.268;6.770;2023-05-23T03:46:11;17.17;;;10.27;;
21352;SDS011;10834;52.268;6.770;2023-05-23T03:48:57;15.47;;;10.00;;
21352;SDS011;10834;52.268;6.770;2023-05-23T03:51:43;14.23;;;9.53;;
21352;SDS011;10834;52.268;6.770;2023-05-23T03:54:29;15.37;;;9.93;;
21352;SDS011;10834;52.268;6.770;2023-05-23T03:57:16;17.87;;;9.63;;
21352;SDS011;10834;52.268;6.770;2023-05-23T04:00:02;12.60;;;9.50;;
21352;SDS011;10834;52.268;6.770;2023-05-23T04:02:50;15.03;;;9.47;;
21352;SDS011;10834;52.268;6.770;2023-05-23T04:05:36;14.17;;;10.77;;
21352;SDS011;10834;52.268;6.770;2023-05-23T04:08:23;20.47;;;10.90;;
21352;SDS011;10834;52.268;6.770;2023-05-23T04:11:09;20.00;;;10.70;;
21352;SDS011;10834;52.268;6.770;2023-05-23T04:13:55;15.87;;;8.83;;
21352;SDS011;10834;52.268;6.770;2023-05-23T04:16:41;20.10;;;10.03;;
21352;SDS011;10834;52.268;6.770;2023-05-23T04:19:29;19.20;;;11.15;;
21352;SDS011;10834;52.268;6.770;2023-05-23T04:22:15;22.23;;;10.77;;
21352;SDS011;10834;52.268;6.770;2023-05-23T04:25:01;21.90;;;11.20;;
21352;SDS011;10834;52.268;6.770;2023-05-23T04:27:47;19.93;;;11.37;;
21352;SDS011;10834;52.268;6.770;2023-05-23T04:30:33;18.87;;;10.90;;
21352;SDS011;10834;52.268;6.770;2023-05-23T04:33:19;19.63;;;11.47;;
21352;SDS011;10834;52.268;6.770;2023-05-23T04:36:06;18.43;;;10.33;;
21352;SDS011;10834;52.268;6.770;2023-05-23T04:38:55;19.30;;;11.57;;
21352;SDS011;10834;52.268;6.770;2023-05-23T04:41:41;20.63;;;10.37;;
21352;SDS011;10834;52.268;6.770;2023-05-23T04:44:29;17.47;;;9.90;;
21352;SDS011;10834;52.268;6.770;2023-05-23T04:47:16;19.97;;;9.57;;
21352;SDS011;10834;52.268;6.770;2023-05-23T04:50:02;15.57;;;10.47;;
21352;SDS011;10834;52.268;6.770;2023-05-23T04:52:48;15.93;;;9.03;;
21352;SDS011;10834;52.268;6.770;2023-05-23T04:55:34;14.97;;;9.03;;
21352;SDS011;10834;52.268;6.770;2023-05-23T04:58:21;16.03;;;8.67;;
21352;SDS011;10834;52.268;6.770;2023-05-23T05:01:07;15.63;;;8.50;;
21352;SDS011;10834;52.268;6.770;2023-05-23T05:03:54;15.17;;;8.53;;
21352;SDS011;10834;52.268;6.770;2023-05-23T05:06:40;17.00;;;8.87;;
21352;SDS011;10834;52.268;6.770;2023-05-23T05:09:26;17.77;;;7.90;;
21352;SDS011;10834;52.268;6.770;2023-05-23T05:12:12;16.77;;;7.97;;
21352;SDS011;10834;52.268;6.770;2023-05-23T05:14:58;17.97;;;8.50;;
21352;SDS011;10834;52.268;6.770;2023-05-23T05:17:44;18.10;;;8.90;;
21352;SDS011;10834;52.268;6.770;2023-05-23T05:20:30;18.57;;;8.80;;
21352;SDS011;10834;52.268;6.770;2023-05-23T05:23:16;14.37;;;8.30;;
21352;SDS011;10834;52.268;6.770;2023-05-23T05:26:02;17.27;;;8.67;;
21352;SDS011;10834;52.268;6.770;2023-05-23T05:28:49;15.90;;;6.83;;
21352;SDS011;10834;52.268;6.770;2023-05-23T05:31:36;11.73;;;7.37;;
21352;SDS011;10834;52.268;6.770;2023-05-23T05:34:22;17.03;;;7.67;;
21352;SDS011;10834;52.268;6.770;2023-05-23T05:37:08;11.93;;;7.30;;
21352;SDS011;10834;52.268;6.770;2023-05-23T05:39:54;15.67;;;7.77;;
21352;SDS011;10834;52.268;6.770;2023-05-23T05:42:41;19.17;;;6.83;;
21352;SDS011;10834;52.268;6.770;2023-05-23T05:45:27;16.20;;;7.00;;
21352;SDS011;10834;52.268;6.770;2023-05-23T05:48:13;14.00;;;8.30;;
21352;SDS011;10834;52.268;6.770;2023-05-23T05:50:59;11.83;;;6.60;;
21352;SDS011;10834;52.268;6.770;2023-05-23T05:53:45;15.23;;;6.53;;
21352;SDS011;10834;52.268;6.770;2023-05-23T05:56:31;17.07;;;5.67;;
21352;SDS011;10834;52.268;6.770;2023-05-23T05:59:17;12.20;;;5.17;;
21352;SDS011;10834;52.268;6.770;2023-05-23T06:02:04;10.30;;;5.80;;
21352;SDS011;10834;52.268;6.770;2023-05-23T06:04:50;15.00;;;5.63;;
21352;SDS011;10834;52.268;6.770;2023-05-23T06:07:38;11.13;;;5.20;;
21352;SDS011;10834;52.268;6.770;2023-05-23T06:10:25;10.10;;;4.67;;
21352;SDS011;10834;52.268;6.770;2023-05-23T06:13:11;8.67;;;4.93;;
21352;SDS011;10834;52.268;6.770;2023-05-23T06:15:57;12.57;;;4.77;;
21352;SDS011;10834;52.268;6.770;2023-05-23T06:18:43;8.33;;;4.23;;
21352;SDS011;10834;52.268;6.770;2023-05-23T06:21:29;7.77;;;4.20;;
21352;SDS011;10834;52.268;6.770;2023-05-23T06:24:15;9.33;;;4.80;;
21352;SDS011;10834;52.268;6.770;2023-05-23T06:27:01;8.50;;;4.60;;
21352;SDS011;10834;52.268;6.770;2023-05-23T06:29:47;7.80;;;4.40;;
21352;SDS011;10834;52.268;6.770;2023-05-23T06:32:33;8.50;;;4.53;;
21352;SDS011;10834;52.268;6.770;2023-05-23T06:35:20;7.47;;;4.00;;
21352;SDS011;10834;52.268;6.770;2023-05-23T06:38:05;9.37;;;4.63;;
21352;SDS011;10834;52.268;6.770;2023-05-23T06:40:52;13.97;;;5.63;;
21352;SDS011;10834;52.268;6.770;2023-05-23T06:43:38;13.53;;;5.93;;
21352;SDS011;10834;52.268;6.770;2023-05-23T06:46:24;11.03;;;5.43;;
21352;SDS011;10834;52.268;6.770;2023-05-23T06:49:10;9.87;;;5.40;;
21352;SDS011;10834;52.268;6.770;2023-05-23T06:51:56;11.57;;;5.00;;
21352;SDS011;10834;52.268;6.770;2023-05-23T06:54:43;12.03;;;5.70;;
21352;SDS011;10834;52.268;6.770;2023-05-23T06:57:29;11.20;;;5.47;;
21352;SDS011;10834;52.268;6.770;2023-05-23T07:00:15;13.90;;;5.80;;
21352;SDS011;10834;52.268;6.770;2023-05-23T07:03:01;13.20;;;5.77;;
21352;SDS011;10834;52.268;6.770;2023-05-23T07:05:47;13.53;;;5.57;;
21352;SDS011;10834;52.268;6.770;2023-05-23T07:08:34;11.73;;;5.43;;
21352;SDS011;10834;52.268;6.770;2023-05-23T07:11:20;10.97;;;4.80;;
21352;SDS011;10834;52.268;6.770;2023-05-23T07:14:07;12.67;;;5.03;;
21352;SDS011;10834;52.268;6.770;2023-05-23T07:16:53;13.53;;;4.97;;
21352;SDS011;10834;52.268;6.770;2023-05-23T07:19:39;17.40;;;6.00;;
21352;SDS011;10834;52.268;6.770;2023-05-23T07:22:25;14.53;;;4.53;;
21352;SDS011;10834;52.268;6.770;2023-05-23T07:25:11;8.07;;;4.70;;
21352;SDS011;10834;52.268;6.770;2023-05-23T07:27:57;9.43;;;4.80;;
21352;SDS011;10834;52.268;6.770;2023-05-23T07:30:43;10.40;;;5.20;;
21352;SDS011;10834;52.268;6.770;2023-05-23T07:33:30;13.13;;;5.23;;
21352;SDS011;10834;52.268;6.770;2023-05-23T07:36:18;10.07;;;4.40;;
21352;SDS011;10834;52.268;6.770;2023-05-23T07:39:05;8.60;;;4.30;;
21352;SDS011;10834;52.268;6.770;2023-05-23T07:41:51;9.17;;;5.27;;
21352;SDS011;10834;52.268;6.770;2023-05-23T07:44:37;10.93;;;6.03;;
21352;SDS011;10834;52.268;6.770;2023-05-23T07:47:23;10.30;;;4.53;;
21352;SDS011;10834;52.268;6.770;2023-05-23T07:50:09;12.03;;;5.40;;
21352;SDS011;10834;52.268;6.770;2023-05-23T07:52:55;13.23;;;5.17;;
21352;SDS011;10834;52.268;6.770;2023-05-23T07:55:41;13.20;;;4.93;;
21352;SDS011;10834;52.268;6.770;2023-05-23T07:58:27;8.57;;;4.50;;
21352;SDS011;10834;52.268;6.770;2023-05-23T08:01:13;9.63;;;5.23;;
21352;SDS011;10834;52.268;6.770;2023-05-23T08:04:00;10.27;;;5.07;;
21352;SDS011;10834;52.268;6.770;2023-05-23T08:06:46;12.23;;;4.60;;
21352;SDS011;10834;52.268;6.770;2023-05-23T08:09:33;16.03;;;5.67;;
21352;SDS011;10834;52.268;6.770;2023-05-23T08:12:19;10.33;;;4.87;;
21352;SDS011;10834;52.268;6.770;2023-05-23T08:15:05;8.13;;;4.43;;
21352;SDS011;10834;52.268;6.770;2023-05-23T08:17:52;9.07;;;4.07;;
21352;SDS011;10834;52.268;6.770;2023-05-23T08:20:41;9.40;;;4.10;;
21352;SDS011;10834;52.268;6.770;2023-05-23T08:23:27;7.30;;;3.80;;
21352;SDS011;10834;52.268;6.770;2023-05-23T08:26:13;11.77;;;3.40;;
21352;SDS011;10834;52.268;6.770;2023-05-23T08:29:00;6.63;;;3.67;;
21352;SDS011;10834;52.268;6.770;2023-05-23T08:31:46;9.68;;;3.78;;
21352;SDS011;10834;52.268;6.770;2023-05-23T08:34:32;7.85;;;3.78;;
21352;SDS011;10834;52.268;6.770;2023-05-23T08:37:18;9.40;;;3.78;;
21352;SDS011;10834;52.268;6.770;2023-05-23T08:40:06;6.47;;;3.23;;
21352;SDS011;10834;52.268;6.770;2023-05-23T08:42:56;11.13;;;3.97;;
21352;SDS011;10834;52.268;6.770;2023-05-23T08:45:42;9.03;;;3.40;;
21352;SDS011;10834;52.268;6.770;2023-05-23T08:48:29;10.60;;;3.30;;
21352;SDS011;10834;52.268;6.770;2023-05-23T08:51:15;9.20;;;3.77;;
21352;SDS011;10834;52.268;6.770;2023-05-23T08:54:03;10.00;;;4.80;;
21352;SDS011;10834;52.268;6.770;2023-05-23T08:56:50;9.82;;;3.63;;
21352;SDS011;10834;52.268;6.770;2023-05-23T08:59:37;9.40;;;4.13;;
21352;SDS011;10834;52.268;6.770;2023-05-23T09:02:23;13.37;;;3.90;;
21352;SDS011;10834;52.268;6.770;2023-05-23T09:05:10;9.33;;;3.63;;
21352;SDS011;10834;52.268;6.770;2023-05-23T09:07:57;12.50;;;4.00;;
21352;SDS011;10834;52.268;6.770;2023-05-23T09:10:43;17.70;;;4.33;;
21352;SDS011;10834;52.268;6.770;2023-05-23T09:13:29;10.37;;;3.23;;
21352;SDS011;10834;52.268;6.770;2023-05-23T09:16:16;6.53;;;3.23;;
21352;SDS011;10834;52.268;6.770;2023-05-23T09:19:10;12.30;;;3.70;;
21352;SDS011;10834;52.268;6.770;2023-05-23T09:21:57;10.02;;;3.45;;
21352;SDS011;10834;52.268;6.770;2023-05-23T09:24:43;11.75;;;3.10;;
21352;SDS011;10834;52.268;6.770;2023-05-23T09:27:29;9.90;;;3.13;;
21352;SDS011;10834;52.268;6.770;2023-05-23T09:30:15;10.07;;;3.20;;
21352;SDS011;10834;52.268;6.770;2023-05-23T09:33:02;15.27;;;3.75;;
21352;SDS011;10834;52.268;6.770;2023-05-23T09:35:49;11.52;;;4.72;;
21352;SDS011;10834;52.268;6.770;2023-05-23T09:38:39;10.88;;;3.67;;
21352;SDS011;10834;52.268;6.770;2023-05-23T09:41:25;11.65;;;4.03;;
21352;SDS011;10834;52.268;6.770;2023-05-23T09:44:16;13.07;;;3.72;;
21352;SDS011;10834;52.268;6.770;2023-05-23T09:47:07;14.13;;;3.78;;
21352;SDS011;10834;52.268;6.770;2023-05-23T09:49:53;16.80;;;4.18;;
21352;SDS011;10834;52.268;6.770;2023-05-23T09:52:40;15.57;;;3.38;;
21352;SDS011;10834;52.268;6.770;2023-05-23T09:55:26;10.38;;;3.90;;
21352;SDS011;10834;52.268;6.770;2023-05-23T09:58:12;10.05;;;3.65;;
21352;SDS011;10834;52.268;6.770;2023-05-23T10:00:59;11.88;;;3.33;;
21352;SDS011;10834;52.268;6.770;2023-05-23T10:06:48;14.52;;;3.63;;
21352;SDS011;10834;52.268;6.770;2023-05-23T10:09:38;9.05;;;2.95;;
21352;SDS011;10834;52.268;6.770;2023-05-23T10:15:33;9.70;;;3.35;;
21352;SDS011;10834;52.268;6.770;2023-05-23T10:18:24;5.50;;;2.28;;
21352;SDS011;10834;52.268;6.770;2023-05-23T10:21:14;6.20;;;3.03;;
21352;SDS011;10834;52.268;6.770;2023-05-23T10:24:05;7.57;;;3.50;;
21352;SDS011;10834;52.268;6.770;2023-05-23T10:26:52;7.45;;;3.28;;
21352;SDS011;10834;52.268;6.770;2023-05-23T10:29:40;8.52;;;3.10;;
21352;SDS011;10834;52.268;6.770;2023-05-23T10:32:26;8.13;;;3.15;;
21352;SDS011;10834;52.268;6.770;2023-05-23T10:41:24;11.48;;;3.33;;
21352;SDS011;10834;52.268;6.770;2023-05-23T10:44:36;8.02;;;2.80;;
21352;SDS011;10834;52.268;6.770;2023-05-23T10:47:25;11.68;;;3.22;;
21352;SDS011;10834;52.268;6.770;2023-05-23T10:50:15;9.55;;;3.15;;
21352;SDS011;10834;52.268;6.770;2023-05-23T10:53:16;10.25;;;2.97;;
21352;SDS011;10834;52.268;6.770;2023-05-23T10:56:05;9.40;;;3.33;;
21352;SDS011;10834;52.268;6.770;2023-05-23T10:58:53;11.55;;;3.10;;
21352;SDS011;10834;52.268;6.770;2023-05-23T11:01:40;9.38;;;3.72;;
21352;SDS011;10834;52.268;6.770;2023-05-23T11:04:27;7.00;;;2.70;;
21352;SDS011;10834;52.268;6.770;2023-05-23T11:07:27;10.13;;;4.03;;
21352;SDS011;10834;52.268;6.770;2023-05-23T11:10:15;8.88;;;3.13;;
21352;SDS011;10834;52.268;6.770;2023-05-23T11:13:06;6.65;;;3.17;;
21352;SDS011;10834;52.268;6.770;2023-05-23T11:15:52;13.13;;;3.42;;
21352;SDS011;10834;52.268;6.770;2023-05-23T11:18:38;13.52;;;3.58;;
21352;SDS011;10834;52.268;6.770;2023-05-23T11:21:24;10.75;;;3.25;;
21352;SDS011;10834;52.268;6.770;2023-05-23T11:24:10;9.77;;;3.17;;
21352;SDS011;10834;52.268;6.770;2023-05-23T11:26:57;6.13;;;2.83;;
21352;SDS011;10834;52.268;6.770;2023-05-23T11:29:58;12.30;;;3.25;;
21352;SDS011;10834;52.268;6.770;2023-05-23T11:32:53;7.10;;;3.40;;
21352;SDS011;10834;52.268;6.770;2023-05-23T11:35:40;9.32;;;2.80;;
21352;SDS011;10834;52.268;6.770;2023-05-23T11:38:29;12.60;;;2.85;;
21352;SDS011;10834;52.268;6.770;2023-05-23T11:41:17;9.15;;;3.97;;
21352;SDS011;10834;52.268;6.770;2023-05-23T11:44:12;14.30;;;3.33;;
21352;SDS011;10834;52.268;6.770;2023-05-23T11:47:02;7.95;;;3.33;;
21352;SDS011;10834;52.268;6.770;2023-05-23T11:49:49;8.07;;;3.05;;
21352;SDS011;10834;52.268;6.770;2023-05-23T11:52:35;9.90;;;3.17;;
21352;SDS011;10834;52.268;6.770;2023-05-23T11:55:21;10.70;;;2.50;;
21352;SDS011;10834;52.268;6.770;2023-05-23T11:58:07;7.63;;;2.85;;
21352;SDS011;10834;52.268;6.770;2023-05-23T12:00:58;13.13;;;4.40;;
21352;SDS011;10834;52.268;6.770;2023-05-23T12:03:53;10.02;;;2.83;;
21352;SDS011;10834;52.268;6.770;2023-05-23T12:06:39;8.57;;;2.67;;
21352;SDS011;10834;52.268;6.770;2023-05-23T12:09:26;10.98;;;2.88;;
21352;SDS011;10834;52.268;6.770;2023-05-23T12:12:12;7.32;;;2.97;;
21352;SDS011;10834;52.268;6.770;2023-05-23T12:14:59;8.13;;;2.53;;
21352;SDS011;10834;52.268;6.770;2023-05-23T12:17:45;7.90;;;2.30;;
21352;SDS011;10834;52.268;6.770;2023-05-23T12:20:31;6.55;;;2.38;;
21352;SDS011;10834;52.268;6.770;2023-05-23T12:23:20;9.35;;;2.92;;
21352;SDS011;10834;52.268;6.770;2023-05-23T12:26:07;7.38;;;2.55;;
21352;SDS011;10834;52.268;6.770;2023-05-23T12:28:55;7.03;;;2.70;;
21352;SDS011;10834;52.268;6.770;2023-05-23T12:31:42;12.13;;;2.60;;
21352;SDS011;10834;52.268;6.770;2023-05-23T12:34:28;7.88;;;2.53;;
21352;SDS011;10834;52.268;6.770;2023-05-23T12:37:14;12.23;;;2.60;;
21352;SDS011;10834;52.268;6.770;2023-05-23T12:40:13;9.98;;;3.20;;
21352;SDS011;10834;52.268;6.770;2023-05-23T12:43:01;9.32;;;2.60;;
21352;SDS011;10834;52.268;6.770;2023-05-23T12:45:47;5.20;;;2.55;;
21352;SDS011;10834;52.268;6.770;2023-05-23T12:48:33;11.70;;;3.25;;
21352;SDS011;10834;52.268;6.770;2023-05-23T12:51:20;10.90;;;2.83;;
21352;SDS011;10834;52.268;6.770;2023-05-23T12:54:07;10.75;;;2.88;;
21352;SDS011;10834;52.268;6.770;2023-05-23T12:56:53;8.63;;;2.97;;
21352;SDS011;10834;52.268;6.770;2023-05-23T12:59:39;7.20;;;2.90;;
21352;SDS011;10834;52.268;6.770;2023-05-23T13:02:26;7.80;;;2.45;;
21352;SDS011;10834;52.268;6.770;2023-05-23T13:05:12;15.43;;;3.17;;
21352;SDS011;10834;52.268;6.770;2023-05-23T13:07:58;6.07;;;2.67;;
21352;SDS011;10834;52.268;6.770;2023-05-23T13:10:45;6.13;;;2.38;;
21352;SDS011;10834;52.268;6.770;2023-05-23T13:13:31;13.90;;;2.80;;
21352;SDS011;10834;52.268;6.770;2023-05-23T13:16:18;8.18;;;2.78;;
21352;SDS011;10834;52.268;6.770;2023-05-23T13:19:04;8.45;;;3.08;;
21352;SDS011;10834;52.268;6.770;2023-05-23T13:21:50;9.98;;;2.78;;
21352;SDS011;10834;52.268;6.770;2023-05-23T13:24:36;13.35;;;3.00;;
21352;SDS011;10834;52.268;6.770;2023-05-23T13:27:23;9.02;;;3.05;;
21352;SDS011;10834;52.268;6.770;2023-05-23T13:30:10;3.90;;;2.28;;
21352;SDS011;10834;52.268;6.770;2023-05-23T13:32:56;9.02;;;2.63;;
21352;SDS011;10834;52.268;6.770;2023-05-23T13:35:42;6.47;;;2.38;;
21352;SDS011;10834;52.268;6.770;2023-05-23T13:38:28;6.72;;;2.42;;
21352;SDS011;10834;52.268;6.770;2023-05-23T13:41:16;7.65;;;2.28;;
21352;SDS011;10834;52.268;6.770;2023-05-23T13:44:02;7.10;;;2.55;;
21352;SDS011;10834;52.268;6.770;2023-05-23T13:46:48;9.60;;;2.67;;
21352;SDS011;10834;52.268;6.770;2023-05-23T13:49:34;8.82;;;2.40;;
21352;SDS011;10834;52.268;6.770;2023-05-23T13:52:20;9.95;;;2.63;;
21352;SDS011;10834;52.268;6.770;2023-05-23T13:55:07;6.97;;;2.53;;
21352;SDS011;10834;52.268;6.770;2023-05-23T13:57:53;12.55;;;2.65;;
21352;SDS011;10834;52.268;6.770;2023-05-23T14:00:39;9.60;;;2.88;;
21352;SDS011;10834;52.268;6.770;2023-05-23T14:03:25;16.33;;;3.65;;
21352;SDS011;10834;52.268;6.770;2023-05-23T14:06:12;10.80;;;2.80;;
21352;SDS011;10834;52.268;6.770;2023-05-23T14:08:58;8.57;;;2.80;;
21352;SDS011;10834;52.268;6.770;2023-05-23T14:11:44;10.15;;;2.30;;
21352;SDS011;10834;52.268;6.770;2023-05-23T14:14:30;8.40;;;2.22;;
21352;SDS011;10834;52.268;6.770;2023-05-23T14:17:16;6.07;;;2.38;;
21352;SDS011;10834;52.268;6.770;2023-05-23T14:20:02;8.07;;;2.60;;
21352;SDS011;10834;52.268;6.770;2023-05-23T14:22:49;9.63;;;2.63;;
21352;SDS011;10834;52.268;6.770;2023-05-23T14:25:35;4.40;;;1.90;;
21352;SDS011;10834;52.268;6.770;2023-05-23T14:28:21;9.43;;;2.35;;
21352;SDS011;10834;52.268;6.770;2023-05-23T14:31:07;4.30;;;2.00;;
21352;SDS011;10834;52.268;6.770;2023-05-23T14:33:54;12.10;;;2.28;;
21352;SDS011;10834;52.268;6.770;2023-05-23T14:36:40;6.43;;;2.58;;
21352;SDS011;10834;52.268;6.770;2023-05-23T14:39:26;9.23;;;2.58;;
21352;SDS011;10834;52.268;6.770;2023-05-23T14:42:13;6.63;;;2.00;;
21352;SDS011;10834;52.268;6.770;2023-05-23T14:44:59;8.98;;;2.53;;
21352;SDS011;10834;52.268;6.770;2023-05-23T14:47:45;5.95;;;2.58;;
21352;SDS011;10834;52.268;6.770;2023-05-23T14:50:31;7.07;;;2.42;;
21352;SDS011;10834;52.268;6.770;2023-05-23T14:53:17;7.03;;;2.35;;
21352;SDS011;10834;52.268;6.770;2023-05-23T14:56:06;8.38;;;2.70;;
21352;SDS011;10834;52.268;6.770;2023-05-23T14:58:52;7.47;;;1.80;;
21352;SDS011;10834;52.268;6.770;2023-05-23T15:01:40;8.60;;;2.72;;
21352;SDS011;10834;52.268;6.770;2023-05-23T15:04:26;7.05;;;2.60;;
21352;SDS011;10834;52.268;6.770;2023-05-23T15:07:12;5.40;;;2.22;;
21352;SDS011;10834;52.268;6.770;2023-05-23T15:10:02;8.23;;;2.00;;
21352;SDS011;10834;52.268;6.770;2023-05-23T15:12:51;8.00;;;2.13;;
21352;SDS011;10834;52.268;6.770;2023-05-23T15:15:37;6.50;;;2.10;;
21352;SDS011;10834;52.268;6.770;2023-05-23T15:18:25;6.75;;;2.03;;
21352;SDS011;10834;52.268;6.770;2023-05-23T15:21:12;5.97;;;2.42;;
21352;SDS011;10834;52.268;6.770;2023-05-23T15:23:58;8.02;;;2.80;;
21352;SDS011;10834;52.268;6.770;2023-05-23T15:26:44;5.28;;;1.88;;
21352;SDS011;10834;52.268;6.770;2023-05-23T15:29:30;7.07;;;2.30;;
21352;SDS011;10834;52.268;6.770;2023-05-23T15:32:18;11.07;;;2.47;;
21352;SDS011;10834;52.268;6.770;2023-05-23T15:35:04;10.15;;;2.10;;
21352;SDS011;10834;52.268;6.770;2023-05-23T15:37:51;6.38;;;2.25;;
21352;SDS011;10834;52.268;6.770;2023-05-23T15:40:37;7.80;;;2.10;;
21352;SDS011;10834;52.268;6.770;2023-05-23T15:43:23;9.30;;;2.80;;
21352;SDS011;10834;52.268;6.770;2023-05-23T15:46:09;8.73;;;2.22;;
21352;SDS011;10834;52.268;6.770;2023-05-23T15:48:55;6.93;;;2.22;;
21352;SDS011;10834;52.268;6.770;2023-05-23T15:51:44;8.68;;;2.47;;
21352;SDS011;10834;52.268;6.770;2023-05-23T15:54:30;5.95;;;2.13;;
21352;SDS011;10834;52.268;6.770;2023-05-23T15:57:16;5.68;;;2.45;;
21352;SDS011;10834;52.268;6.770;2023-05-23T16:00:03;7.43;;;1.60;;
21352;SDS011;10834;52.268;6.770;2023-05-23T16:02:49;5.88;;;2.05;;
21352;SDS011;10834;52.268;6.770;2023-05-23T16:05:35;7.65;;;2.25;;
21352;SDS011;10834;52.268;6.770;2023-05-23T16:08:21;5.97;;;2.05;;
21352;SDS011;10834;52.268;6.770;2023-05-23T16:11:07;5.60;;;1.95;;
21352;SDS011;10834;52.268;6.770;2023-05-23T16:13:53;7.07;;;1.58;;
21352;SDS011;10834;52.268;6.770;2023-05-23T16:16:40;4.65;;;1.70;;
21352;SDS011;10834;52.268;6.770;2023-05-23T16:19:26;11.90;;;2.50;;
21352;SDS011;10834;52.268;6.770;2023-05-23T16:22:12;7.43;;;1.85;;
21352;SDS011;10834;52.268;6.770;2023-05-23T16:24:58;9.82;;;2.20;;
21352;SDS011;10834;52.268;6.770;2023-05-23T16:27:44;3.88;;;1.90;;
21352;SDS011;10834;52.268;6.770;2023-05-23T16:30:31;7.28;;;2.08;;
21352;SDS011;10834;52.268;6.770;2023-05-23T16:33:17;4.85;;;1.92;;
21352;SDS011;10834;52.268;6.770;2023-05-23T16:36:03;4.00;;;1.83;;
21352;SDS011;10834;52.268;6.770;2023-05-23T16:38:49;6.70;;;2.05;;
21352;SDS011;10834;52.268;6.770;2023-05-23T16:41:35;7.72;;;1.77;;
21352;SDS011;10834;52.268;6.770;2023-05-23T16:44:21;5.63;;;1.40;;
21352;SDS011;10834;52.268;6.770;2023-05-23T16:47:07;3.88;;;1.50;;
21352;SDS011;10834;52.268;6.770;2023-05-23T16:49:53;8.52;;;1.77;;
21352;SDS011;10834;52.268;6.770;2023-05-23T16:52:39;6.50;;;1.90;;